Time;durP1;ratioP1;P1;durP2;ratioP2;P2;SDS_P1;SDS_P2;PMS_P1;PMS_P2;Temp;Humidity;BMP_temperature;BMP_pressure;BME280_temperature;BME280_humidity;BME280_pressure;Samples;Min_cycle;Max_cycle;Signal;HPM_P1;HPM_P2
2022/12/06 00:01:38;;;;;;;127.93;82.78;;;179.60;2252.80;;;;;;4973834;28;20045;-60
2022/12/06 00:04:07;;;;;;;129.10;79.97;;;179.60;2252.80;;;;;;4973579;28;20029;-59
2022/12/06 00:06:39;;;;;;;157.32;103.43;;;179.60;2252.80;;;;;;4973815;28;20039;-59
2022/12/06 00:09:06;;;;;;;121.00;74.93;;;179.60;2252.80;;;;;;4973678;28;20038;-58
2022/12/06 00:11:34;;;;;;;95.65;60.58;;;179.60;2252.80;;;;;;4973728;28;20031;-60
2022/12/06 00:14:03;;;;;;;86.60;56.90;;;179.60;2252.80;;;;;;4973535;28;20066;-60
2022/12/06 00:16:29;;;;;;;103.90;69.63;;;179.50;2252.80;;;;;;4973373;28;20035;-60
2022/12/06 00:18:55;;;;;;;94.28;59.28;;;179.50;2252.80;;;;;;4973646;28;20049;-60
2022/12/06 00:21:24;;;;;;;101.05;64.88;;;179.40;2252.80;;;;;;4973347;28;20036;-59
2022/12/06 00:23:53;;;;;;;106.10;70.35;;;179.40;2252.80;;;;;;4973366;28;20034;-60
2022/12/06 00:26:19;;;;;;;106.13;69.85;;;179.40;2252.80;;;;;;4973404;28;20031;-60
2022/12/06 00:28:45;;;;;;;125.68;80.93;;;179.40;2252.80;;;;;;4973394;28;20114;-60
2022/12/06 00:31:19;;;;;;;99.47;69.97;;;179.40;2252.80;;;;;;4973226;28;20125;-59
2022/12/06 00:33:44;;;;;;;;;;;179.40;2252.80;;;;;;4973773;28;20037;-59
2022/12/06 00:36:11;;;;;;;109.13;72.75;;;179.40;2252.80;;;;;;4972790;28;20335;-60
2022/12/06 00:38:37;;;;;;;112.32;75.97;;;179.40;2252.80;;;;;;4973450;28;20746;-59
2022/12/06 00:41:06;;;;;;;109.22;75.45;;;179.30;2252.80;;;;;;4973275;28;20033;-58
2022/12/06 00:43:32;;;;;;;104.43;67.63;;;179.40;2252.80;;;;;;4973049;28;20037;-60
2022/12/06 00:45:59;;;;;;;96.70;62.10;;;179.40;2252.80;;;;;;4972786;28;20043;-60
2022/12/06 00:48:25;;;;;;;101.20;61.70;;;179.40;2252.80;;;;;;4973058;28;20482;-60
2022/12/06 00:50:51;;;;;;;115.43;77.20;;;179.40;2252.80;;;;;;4972935;28;20069;-60
2022/12/06 00:53:17;;;;;;;98.65;61.55;;;179.40;2252.80;;;;;;4973169;28;20054;-60
2022/12/06 00:55:43;;;;;;;125.57;81.90;;;179.40;2252.80;;;;;;4972879;28;20050;-60
2022/12/06 00:58:10;;;;;;;92.60;60.30;;;179.30;2252.80;;;;;;4972766;28;20037;-59
2022/12/06 01:00:36;;;;;;;96.07;63.03;;;179.30;2252.80;;;;;;4972854;28;20042;-60
2022/12/06 01:03:02;;;;;;;83.05;55.33;;;179.20;2252.80;;;;;;4972499;28;20027;-59
2022/12/06 01:05:28;;;;;;;78.95;51.97;;;154.50;2252.80;;;;;;4972619;28;20038;-60
2022/12/06 01:07:54;;;;;;;86.43;55.20;;;154.50;2252.80;;;;;;4972677;28;20470;-59
2022/12/06 01:10:20;;;;;;;120.32;78.28;;;154.50;2252.80;;;;;;4972563;28;20367;-58
2022/12/06 01:12:46;;;;;;;106.63;68.15;;;154.50;2252.80;;;;;;4972776;28;20022;-59
2022/12/06 01:15:12;;;;;;;98.60;62.70;;;154.50;2252.80;;;;;;4972342;28;20381;-59
2022/12/06 01:17:38;;;;;;;121.18;73.53;;;154.40;2252.80;;;;;;4972317;28;20070;-60
2022/12/06 01:20:04;;;;;;;108.82;65.00;;;154.50;2252.80;;;;;;4972704;28;20027;-61
2022/12/06 01:22:30;;;;;;;87.50;55.90;;;154.50;2252.80;;;;;;4972392;28;20421;-60
2022/12/06 01:24:57;;;;;;;77.78;51.85;;;154.30;2252.80;;;;;;4972471;28;20077;-61
2022/12/06 01:27:23;;;;;;;79.50;49.83;;;154.30;2252.80;;;;;;4972300;28;20030;-61
2022/12/06 01:29:48;;;;;;;90.95;61.22;;;154.10;2252.80;;;;;;4972076;28;20029;-61
2022/12/06 01:32:14;;;;;;;89.90;54.30;;;154.10;2252.80;;;;;;4972172;28;20114;-60
2022/12/06 01:34:40;;;;;;;109.30;69.57;;;154.10;2252.80;;;;;;4972070;28;20030;-61
2022/12/06 01:37:05;;;;;;;76.10;51.83;;;154.00;2252.80;;;;;;4972167;28;20035;-60
2022/12/06 01:39:31;;;;;;;88.88;57.85;;;154.00;2252.80;;;;;;4972056;28;20434;-59
2022/12/06 01:41:57;;;;;;;104.93;67.43;;;153.70;2252.80;;;;;;4971906;28;20114;-58
2022/12/06 01:44:57;;;;;;;112.45;66.82;;;153.80;2252.80;;;;;;4971873;28;20117;-58
2022/12/06 01:47:29;;;;;;;103.30;64.90;;;153.70;2252.80;;;;;;4912556;29;20104;-58
2022/12/06 01:50:00;;;;;;;98.65;65.60;;;153.70;2252.80;;;;;;4911584;29;20513;-60
2022/12/06 01:52:36;;;;;;;100.90;60.85;;;153.70;2252.80;;;;;;4911896;29;20036;-60
2022/12/06 01:55:05;;;;;;;115.80;74.93;;;153.80;2252.80;;;;;;4912299;29;20080;-59
2022/12/06 01:57:31;;;;;;;91.25;63.03;;;153.70;2252.80;;;;;;4912109;29;20048;-60
2022/12/06 01:59:57;;;;;;;102.32;62.95;;;153.70;2252.80;;;;;;4912187;29;20107;-60
2022/12/06 02:02:23;;;;;;;97.55;64.03;;;153.80;2252.80;;;;;;4912047;29;20122;-60
2022/12/06 02:04:51;;;;;;;89.10;58.63;;;153.80;2252.80;;;;;;4911883;29;20032;-60
2022/12/06 02:07:17;;;;;;;94.00;63.20;;;153.80;2252.80;;;;;;4911374;29;20036;-61
2022/12/06 02:09:44;;;;;;;151.85;85.90;;;153.70;2252.80;;;;;;4911727;29;20474;-60
2022/12/06 02:12:14;;;;;;;127.88;77.72;;;153.70;2252.80;;;;;;4911399;29;20043;-61
2022/12/06 02:14:42;;;;;;;125.68;83.20;;;153.60;2252.80;;;;;;4911360;29;20032;-60
2022/12/06 02:17:49;;;;;;;99.05;63.95;;;153.70;2252.80;;;;;;4911142;29;20036;-61
2022/12/06 02:20:40;;;;;;;99.18;60.13;;;153.70;2252.80;;;;;;4866109;29;20504;-60
2022/12/06 02:23:33;;;;;;;93.57;60.88;;;128.70;2252.80;;;;;;4876077;29;20070;-60
2022/12/06 02:26:10;;;;;;;99.53;63.05;;;128.90;2252.80;;;;;;4881597;29;20044;-59
2022/12/06 02:28:36;;;;;;;106.65;71.22;;;128.90;2252.80;;;;;;4883047;29;20113;-59
2022/12/06 02:31:11;;;;;;;101.18;65.75;;;128.90;2252.80;;;;;;4882527;29;20068;-60
2022/12/06 02:33:45;;;;;;;127.30;76.65;;;128.90;2252.80;;;;;;4883321;29;20044;-59
2022/12/06 02:36:10;;;;;;;;;;;128.90;2252.80;;;;;;4884241;29;20051;-59
2022/12/06 02:38:48;;;;;;;105.50;66.65;;;153.60;2252.80;;;;;;4882918;29;20137;-59
2022/12/06 02:41:21;;;;;;;88.22;58.85;;;153.60;2252.80;;;;;;4881638;29;20096;-58
2022/12/06 02:43:53;;;;;;;98.78;68.13;;;128.90;2252.80;;;;;;4883950;29;20048;-60
2022/12/06 02:46:21;;;;;;;104.32;64.18;;;128.80;2252.80;;;;;;4867320;29;20412;-59
2022/12/06 02:48:50;;;;;;;103.18;60.60;;;128.90;2252.80;;;;;;4882101;29;20428;-59
2022/12/06 02:51:17;;;;;;;98.63;66.68;;;153.60;2252.80;;;;;;4883651;29;20025;-59
2022/12/06 02:53:50;;;;;;;99.28;62.63;;;153.60;2252.80;;;;;;4883679;29;20436;-60
2022/12/06 02:56:17;;;;;;;107.70;66.55;;;153.70;2252.80;;;;;;4939390;28;20031;-58
2022/12/06 02:58:43;;;;;;;117.57;73.72;;;153.60;2252.80;;;;;;4979837;28;20035;-59
2022/12/06 03:01:15;;;;;;;99.60;58.40;;;153.70;2252.80;;;;;;4984250;28;20380;-58
2022/12/06 03:03:49;;;;;;;112.03;70.20;;;153.90;2252.80;;;;;;4984341;28;20035;-57
2022/12/06 03:06:40;;;;;;;110.15;70.97;;;153.90;2252.80;;;;;;4980693;28;20504;-58
2022/12/06 03:09:12;;;;;;;115.65;70.30;;;154.00;2252.80;;;;;;4984359;28;20019;-58
2022/12/06 03:11:44;;;;;;;100.72;57.80;;;154.10;2252.80;;;;;;4978341;28;20026;-60
2022/12/06 03:14:17;;;;;;;153.60;106.90;;;154.30;2252.80;;;;;;4980388;28;20465;-59
2022/12/06 03:17:31;;;;;;;138.48;82.90;;;154.30;2252.80;;;;;;4981155;28;20113;-57
2022/12/06 03:20:04;;;;;;;110.57;67.90;;;154.30;2252.80;;;;;;4984062;28;20111;-62
2022/12/06 03:22:35;;;;;;;100.93;63.80;;;154.50;2252.80;;;;;;4984374;28;20113;-60
2022/12/06 03:25:03;;;;;;;87.07;55.22;;;154.50;2252.80;;;;;;4982466;28;20082;-59
2022/12/06 03:27:30;;;;;;;82.20;52.40;;;179.20;2252.80;;;;;;4983104;28;20030;-60
2022/12/06 03:30:00;;;;;;;75.20;48.55;;;179.20;2252.80;;;;;;4979544;28;20023;-59
2022/12/06 03:32:30;;;;;;;70.05;47.17;;;179.30;2252.80;;;;;;4974629;28;20434;-59
2022/12/06 03:35:00;;;;;;;72.00;46.63;;;179.30;2252.80;;;;;;4974581;28;20026;-59
2022/12/06 03:37:31;;;;;;;67.55;44.13;;;179.20;2252.80;;;;;;4974179;28;20047;-60
2022/12/06 03:40:20;;;;;;;76.07;51.20;;;179.20;2252.80;;;;;;4974486;28;20078;-59
2022/12/06 03:42:47;;;;;;;72.00;45.65;;;179.20;2252.80;;;;;;4974429;28;20117;-60
2022/12/06 03:45:13;;;;;;;73.60;45.88;;;179.20;2252.80;;;;;;4974265;28;20035;-60
2022/12/06 03:47:44;;;;;;;85.60;71.82;;;179.20;2252.80;;;;;;4974319;28;20034;-60
2022/12/06 03:50:23;;;;;;;68.65;45.63;;;179.20;2252.80;;;;;;4974180;28;20026;-60
2022/12/06 03:52:51;;;;;;;65.90;46.83;;;154.30;2252.80;;;;;;4973850;28;20106;-60
2022/12/06 03:55:17;;;;;;;74.05;47.60;;;154.50;2252.80;;;;;;4974133;28;20026;-59
2022/12/06 03:57:43;;;;;;;97.78;60.05;;;154.40;2252.80;;;;;;4973987;28;20046;-59
2022/12/06 04:00:10;;;;;;;76.78;46.92;;;154.30;2252.80;;;;;;4955990;28;20042;-60
2022/12/06 04:02:35;;;;;;;85.97;53.03;;;154.50;2252.80;;;;;;4973982;28;20544;-60
2022/12/06 04:05:01;;;;;;;63.47;40.33;;;179.20;2252.80;;;;;;4973744;28;20035;-60
2022/12/06 04:07:27;;;;;;;75.10;44.25;;;179.30;2252.80;;;;;;4973918;28;20110;-61
2022/12/06 04:10:01;;;;;;;70.68;44.00;;;179.20;2252.80;;;;;;4973795;28;20477;-60
2022/12/06 04:15:16;;;;;;;65.22;41.10;;;154.50;2252.80;;;;;;4974153;28;20078;-60
2022/12/06 04:20:28;;;;;;;50.10;35.85;;;154.50;2252.80;;;;;;4973974;28;20058;-60
2022/12/06 04:23:03;;;;;;;52.58;34.03;;;179.20;2252.80;;;;;;4973805;28;20086;-59
2022/12/06 04:25:35;;;;;;;79.00;43.05;;;179.30;2252.80;;;;;;4973442;28;20547;-59
2022/12/06 04:39:00;;;;;;;60.08;40.63;;;179.30;2252.80;;;;;;4973070;28;20054;-59
2022/12/06 04:44:10;;;;;;;56.22;35.80;;;154.50;2252.80;;;;;;4973282;28;20372;-58
2022/12/06 04:46:35;;;;;;;121.20;64.65;;;154.50;2252.80;;;;;;4973002;28;20035;-58
2022/12/06 04:49:01;;;;;;;88.72;51.45;;;179.30;2252.80;;;;;;4972678;28;20540;-58
2022/12/06 04:51:27;;;;;;;87.50;48.28;;;179.30;2252.80;;;;;;4972885;28;20074;-60
2022/12/06 04:53:53;;;;;;;89.88;62.47;;;179.40;2252.80;;;;;;4973007;28;20055;-59
2022/12/06 04:56:18;;;;;;;56.97;36.55;;;179.40;2252.80;;;;;;4972734;28;20043;-59
2022/12/06 04:58:45;;;;;;;67.25;44.47;;;179.50;2252.80;;;;;;4973028;28;20037;-58
2022/12/06 05:01:10;;;;;;;67.45;44.85;;;179.50;2252.80;;;;;;4972608;28;20407;-59
2022/12/06 05:03:36;;;;;;;47.90;31.42;;;179.60;2252.80;;;;;;4972887;28;20030;-59
2022/12/06 05:06:02;;;;;;;66.65;37.30;;;179.50;2252.80;;;;;;4972673;28;20065;-59
2022/12/06 05:08:28;;;;;;;75.25;45.15;;;179.60;2252.80;;;;;;4972644;28;20027;-59
2022/12/06 05:10:54;;;;;;;61.92;41.08;;;179.60;2252.80;;;;;;4972570;28;20023;-59
2022/12/06 05:13:20;;;;;;;60.65;40.50;;;179.60;2252.80;;;;;;4972628;28;20057;-59
2022/12/06 05:15:50;;;;;;;51.35;36.72;;;179.60;2252.80;;;;;;4972860;28;20031;-58
2022/12/06 05:18:16;;;;;;;96.40;52.03;;;179.70;2252.80;;;;;;4972616;28;20025;-59
2022/12/06 05:20:42;;;;;;;96.50;54.85;;;179.70;2252.80;;;;;;4972520;28;20110;-59
2022/12/06 05:23:08;;;;;;;58.25;36.03;;;179.80;2252.80;;;;;;4971254;28;20138;-59
2022/12/06 05:25:33;;;;;;;88.22;48.67;;;179.80;2252.80;;;;;;4972487;28;20447;-60
2022/12/06 05:27:59;;;;;;;72.00;44.20;;;179.90;2252.80;;;;;;4972291;28;20023;-60
2022/12/06 05:30:25;;;;;;;57.15;36.67;;;179.80;2252.80;;;;;;4972442;28;20041;-59
2022/12/06 05:32:50;;;;;;;66.82;40.97;;;179.90;2252.80;;;;;;4972101;28;20033;-59
2022/12/06 05:35:16;;;;;;;68.80;43.38;;;179.90;2252.80;;;;;;4972304;28;20033;-58
2022/12/06 05:37:42;;;;;;;122.22;72.22;;;180.00;2252.80;;;;;;4972048;28;20031;-59
2022/12/06 05:40:08;;;;;;;75.97;49.33;;;180.00;2252.80;;;;;;4972027;28;20027;-59
2022/12/06 05:42:34;;;;;;;71.22;44.78;;;180.10;2252.80;;;;;;4972065;28;20070;-60
2022/12/06 05:44:59;;;;;;;63.95;42.75;;;180.10;2252.80;;;;;;4971763;28;20070;-60
2022/12/06 05:47:25;;;;;;;63.35;38.20;;;180.10;2252.80;;;;;;4972064;28;20027;-60
2022/12/06 05:49:51;;;;;;;77.93;51.08;;;180.10;2252.80;;;;;;4971883;28;20493;-59
2022/12/06 05:52:16;;;;;;;160.80;101.35;;;204.80;2252.80;;;;;;4972091;28;20030;-60
2022/12/06 05:54:42;;;;;;;118.72;76.57;;;204.80;2252.80;;;;;;4971903;28;20086;-60
2022/12/06 05:57:08;;;;;;;107.03;66.20;;;204.90;2252.80;;;;;;4971684;28;20046;-60
2022/12/06 05:59:33;;;;;;;112.97;70.78;;;204.80;2252.80;;;;;;4971800;28;20050;-60
2022/12/06 06:01:59;;;;;;;86.00;54.33;;;204.80;2252.80;;;;;;4971556;28;20023;-60
2022/12/06 06:04:25;;;;;;;57.65;37.78;;;204.90;2252.80;;;;;;4971725;28;20632;-60
2022/12/06 06:06:50;;;;;;;112.65;63.53;;;204.90;2252.80;;;;;;4971445;28;20062;-60
2022/12/06 06:09:16;;;;;;;93.30;57.03;;;180.10;2252.80;;;;;;4971914;28;20504;-60
2022/12/06 06:11:42;;;;;;;94.30;53.63;;;180.10;2252.80;;;;;;4971592;28;20500;-58
2022/12/06 06:14:08;;;;;;;78.70;51.92;;;204.80;2252.80;;;;;;4971394;28;20027;-60
2022/12/06 06:16:33;;;;;;;104.60;70.60;;;204.80;2252.80;;;;;;4954025;28;20037;-59
2022/12/06 06:19:00;;;;;;;102.75;69.78;;;204.80;2252.80;;;;;;4971337;28;20038;-61
2022/12/06 06:21:26;;;;;;;91.38;57.58;;;204.90;2252.80;;;;;;4971495;28;20470;-59
2022/12/06 06:23:54;;;;;;;102.10;63.55;;;205.00;2252.80;;;;;;4971463;28;20034;-60
2022/12/06 06:26:20;;;;;;;85.70;55.25;;;204.80;2252.80;;;;;;4971195;28;20093;-60
2022/12/06 06:28:46;;;;;;;70.35;45.22;;;204.90;2252.80;;;;;;4971593;28;20465;-61
2022/12/06 06:31:12;;;;;;;215.27;148.23;;;205.00;2252.80;;;;;;4971424;28;20109;-60
2022/12/06 06:33:38;;;;;;;157.55;109.60;;;204.90;2252.80;;;;;;4971255;28;20023;-61
2022/12/06 06:36:04;;;;;;;93.63;64.43;;;180.10;2252.80;;;;;;4971067;28;20504;-61
2022/12/06 06:38:30;;;;;;;68.63;45.30;;;180.10;2252.80;;;;;;4971202;28;20545;-61
2022/12/06 06:40:55;;;;;;;91.80;62.55;;;204.80;2252.80;;;;;;4971285;28;20019;-60
2022/12/06 06:43:21;;;;;;;132.65;84.80;;;180.10;2252.80;;;;;;4971009;28;20421;-60
2022/12/06 06:46:01;;;;;;;106.03;77.05;;;204.90;2252.80;;;;;;4971207;28;20037;-61
2022/12/06 06:48:29;;;;;;;197.20;131.55;;;205.00;2252.80;;;;;;4971046;28;20561;-61
2022/12/06 06:50:55;;;;;;;98.95;65.53;;;205.00;2252.80;;;;;;4971263;28;20473;-61
2022/12/06 06:53:21;;;;;;;140.05;100.38;;;205.10;2252.80;;;;;;4970997;28;20081;-61
2022/12/06 06:55:47;;;;;;;137.93;98.90;;;205.10;2252.80;;;;;;4971065;28;20102;-60
2022/12/06 06:58:13;;;;;;;101.88;72.35;;;205.10;2252.80;;;;;;4971276;28;20030;-60
2022/12/06 07:00:40;;;;;;;71.47;46.15;;;205.20;2252.80;;;;;;4970967;28;20042;-60
2022/12/06 07:03:12;;;;;;;55.20;37.42;;;205.40;2252.80;;;;;;4971205;28;20035;-60
2022/12/06 07:05:37;;;;;;;48.03;33.42;;;205.40;2252.80;;;;;;4970760;28;20047;-61
2022/12/06 07:08:03;;;;;;;50.83;32.72;;;205.40;2252.80;;;;;;4971168;28;20027;-60
2022/12/06 07:10:30;;;;;;;50.35;33.00;;;205.20;2252.80;;;;;;4970869;28;20110;-60
2022/12/06 07:12:56;;;;;;;55.38;37.42;;;205.20;2252.80;;;;;;4971143;28;20110;-60
2022/12/06 07:15:22;;;;;;;67.32;38.95;;;205.30;2252.80;;;;;;4970733;28;20162;-60
2022/12/06 07:17:50;;;;;;;59.65;38.15;;;205.20;2252.80;;;;;;4970950;28;20106;-60
2022/12/06 07:20:17;;;;;;;56.40;38.22;;;205.20;2252.80;;;;;;4971097;28;20469;-60
2022/12/06 07:22:42;;;;;;;52.83;37.78;;;205.10;2252.80;;;;;;4971044;28;20035;-60
2022/12/06 07:25:08;;;;;;;56.40;38.30;;;205.20;2252.80;;;;;;4970583;28;20027;-60
2022/12/06 07:27:37;;;;;;;99.05;64.80;;;205.30;2252.80;;;;;;4970839;28;20034;-60
2022/12/06 07:30:04;;;;;;;100.15;68.35;;;205.30;2252.80;;;;;;4970972;28;20046;-60
2022/12/06 07:32:35;;;;;;;93.68;58.75;;;205.30;2252.80;;;;;;4970773;28;20425;-59
2022/12/06 07:35:02;;;;;;;103.43;73.20;;;205.10;2252.80;;;;;;4970610;28;20062;-60
2022/12/06 07:37:27;;;;;;;115.88;74.30;;;205.00;2252.80;;;;;;4970427;28;20085;-61
2022/12/06 07:39:53;;;;;;;117.85;80.80;;;205.20;2252.80;;;;;;4970824;28;20027;-60
2022/12/06 07:45:06;;;;;;;131.43;98.03;;;230.40;2252.80;;;;;;4970964;28;20038;-60
2022/12/06 07:47:33;;;;;;;202.75;135.02;;;230.50;2252.80;;;;;;4972596;28;20037;-60
2022/12/06 07:49:59;;;;;;;134.48;95.15;;;230.60;2252.80;;;;;;4974095;28;20030;-60
2022/12/06 07:52:28;;;;;;;178.30;111.90;;;230.60;2252.80;;;;;;4974160;28;20019;-60
2022/12/06 07:54:54;;;;;;;118.97;77.03;;;230.90;2252.80;;;;;;4974429;28;20175;-60
2022/12/06 07:57:20;;;;;;;185.98;109.53;;;231.10;2252.80;;;;;;4974052;28;20505;-61
2022/12/06 07:59:46;;;;;;;250.40;184.38;;;231.20;2252.80;;;;;;4974122;28;20027;-60
2022/12/06 08:02:17;;;;;;;203.07;143.43;;;230.70;2252.80;;;;;;4973819;28;20073;-60
2022/12/06 08:04:43;;;;;;;180.38;121.60;;;230.50;2252.80;;;;;;4973912;28;20043;-61
2022/12/06 08:07:09;;;;;;;193.85;128.20;;;230.60;2252.80;;;;;;4973564;28;20601;-60
2022/12/06 08:09:35;;;;;;;205.43;147.77;;;230.90;2252.80;;;;;;4974048;28;20050;-59
2022/12/06 08:12:00;;;;;;;239.57;170.55;;;231.10;2252.80;;;;;;4973656;28;20473;-61
2022/12/06 08:14:26;;;;;;;139.05;95.57;;;231.30;2252.80;;;;;;4974000;28;20022;-59
2022/12/06 08:16:52;;;;;;;155.63;111.32;;;256.00;2252.80;;;;;;4973653;28;20382;-60
2022/12/06 08:19:17;;;;;;;123.70;88.88;;;231.20;2252.80;;;;;;4973605;28;20030;-61
2022/12/06 08:21:43;;;;;;;182.30;120.43;;;231.30;2252.80;;;;;;4973551;28;20027;-60
2022/12/06 08:24:10;;;;;;;107.95;77.63;;;256.50;2252.80;;;;;;4973502;28;20038;-60
2022/12/06 08:26:36;;;;;;;76.40;57.13;;;256.80;2252.80;;;;;;4973731;28;20039;-60
2022/12/06 08:29:03;;;;;;;119.88;90.90;;;256.50;2252.80;;;;;;4973438;28;20066;-61
2022/12/06 08:31:30;;;;;;;113.18;78.25;;;256.70;2252.80;;;;;;4973268;28;20035;-61
2022/12/06 08:33:56;;;;;;;80.05;57.60;;;256.70;2252.80;;;;;;4973523;28;20496;-61
2022/12/06 08:36:23;;;;;;;145.85;105.97;;;256.40;2252.80;;;;;;4973005;28;20050;-61
2022/12/06 08:38:50;;;;;;;237.70;157.48;;;256.00;2252.80;;;;;;4973310;28;20027;-61
2022/12/06 08:44:02;;;;;;;159.80;113.97;;;231.30;2252.80;;;;;;4973284;28;20070;-59
2022/12/06 08:46:30;;;;;;;132.95;93.47;;;256.30;2252.80;;;;;;4972629;28;20035;-61
2022/12/06 08:48:56;;;;;;;116.70;82.03;;;256.50;2252.80;;;;;;4973153;28;20077;-59
2022/12/06 08:51:22;;;;;;;111.97;75.72;;;256.50;2252.80;;;;;;4972928;28;20085;-60
2022/12/06 08:53:47;;;;;;;97.57;70.82;;;256.40;2252.80;;;;;;4972842;28;20433;-59
2022/12/06 08:56:14;;;;;;;95.57;63.28;;;256.70;2252.80;;;;;;4972998;28;20051;-59
2022/12/06 08:58:39;;;;;;;85.05;62.80;;;256.70;2252.80;;;;;;4972626;28;20031;-60
2022/12/06 09:01:13;;;;;;;151.02;112.63;;;256.50;2252.80;;;;;;4972779;28;20033;-60
2022/12/06 09:03:39;;;;;;;151.02;112.45;;;256.30;2252.80;;;;;;4972708;28;20401;-59
2022/12/06 09:06:06;;;;;;;191.57;144.85;;;256.30;2252.80;;;;;;4972476;28;20054;-58
2022/12/06 09:08:32;;;;;;;194.48;133.35;;;256.50;2252.80;;;;;;4972698;28;20030;-60
2022/12/06 09:10:58;;;;;;;195.10;143.98;;;281.60;2278.40;;;;;;4972564;28;20034;-61
2022/12/06 09:13:23;;;;;;;343.35;223.25;;;281.70;2278.40;;;;;;4972898;28;20074;-59
2022/12/06 09:15:49;;;;;;;421.52;283.08;;;282.00;2278.40;;;;;;4972554;28;20082;-61
2022/12/06 09:18:15;;;;;;;220.05;159.32;;;282.30;2278.40;;;;;;4972643;28;20054;-60
2022/12/06 09:20:41;;;;;;;220.93;162.43;;;307.20;2304.00;;;;;;4972313;28;20366;-60
2022/12/06 09:23:07;;;;;;;241.27;180.27;;;307.50;2304.00;;;;;;4972618;28;20429;-61
2022/12/06 09:25:33;;;;;;;162.65;125.78;;;282.40;2278.40;;;;;;4972464;28;20030;-60
2022/12/06 09:27:59;;;;;;;167.20;127.22;;;282.00;2278.40;;;;;;4972513;28;20022;-61
2022/12/06 09:30:25;;;;;;;171.93;124.85;;;282.10;2278.40;;;;;;4972554;28;20359;-61
2022/12/06 09:32:52;;;;;;;183.20;134.55;;;282.20;2278.40;;;;;;4972190;28;20029;-61
2022/12/06 09:35:19;;;;;;;174.43;124.03;;;282.40;2278.40;;;;;;4971976;28;20465;-61
2022/12/06 09:37:45;;;;;;;174.43;125.78;;;307.20;2304.00;;;;;;4972314;28;20033;-61
2022/12/06 09:40:30;;;;;;;118.55;85.28;;;307.30;2304.00;;;;;;4971968;28;20031;-61
2022/12/06 09:43:01;;;;;;;122.28;91.63;;;307.20;2304.00;;;;;;4972092;28;20066;-61
2022/12/06 09:45:38;;;;;;;112.20;81.57;;;307.50;2304.00;;;;;;4972141;28;20452;-61
2022/12/06 09:48:21;;;;;;;183.68;129.73;;;307.50;2304.00;;;;;;4972004;28;20051;-59
2022/12/06 09:50:59;;;;;;;250.68;186.48;;;307.70;2304.00;;;;;;4972106;28;20470;-60
2022/12/06 09:53:42;;;;;;;215.82;157.32;;;308.00;2304.00;;;;;;4972003;28;20062;-60
2022/12/06 09:56:24;;;;;;;188.85;141.35;;;307.80;2304.00;;;;;;4971650;28;20531;-57
2022/12/06 09:59:18;;;;;;;132.32;94.40;;;307.90;2304.00;;;;;;4971726;28;20487;-59
2022/12/06 10:02:11;;;;;;;73.80;51.88;;;307.70;2304.00;;;;;;4971768;28;20484;-59
2022/12/06 10:04:45;;;;;;;60.60;43.33;;;307.80;2304.00;;;;;;4971787;28;20491;-59
2022/12/06 10:07:36;;;;;;;55.95;36.92;;;307.80;2304.00;;;;;;4971676;28;20042;-59
2022/12/06 10:10:13;;;;;;;61.67;42.80;;;307.80;2304.00;;;;;;4971365;28;20030;-57
2022/12/06 10:12:48;;;;;;;60.70;42.85;;;307.80;2304.00;;;;;;4971888;28;20058;-58
2022/12/06 10:15:42;;;;;;;56.53;42.67;;;307.90;2304.00;;;;;;4971718;28;20041;-60
2022/12/06 10:18:32;;;;;;;55.03;37.90;;;308.00;2304.00;;;;;;4971647;28;20022;-57
2022/12/06 10:21:36;;;;;;;44.90;28.15;;;308.00;2304.00;;;;;;4971341;28;20046;-57
2022/12/06 10:24:08;;;;;;;38.83;24.75;;;332.80;2329.60;;;;;;4893205;29;20037;-59
2022/12/06 10:26:52;;;;;;;35.78;24.25;;;332.90;2329.60;;;;;;4893032;29;20053;-59
2022/12/06 10:29:21;;;;;;;29.65;22.33;;;333.20;2329.60;;;;;;4893453;29;20839;-59
2022/12/06 10:32:11;;;;;;;32.50;20.98;;;333.40;2329.60;;;;;;4893084;29;20163;-59
2022/12/06 10:34:53;;;;;;;42.60;30.38;;;333.60;2329.60;;;;;;4893158;29;20408;-59
2022/12/06 10:37:51;;;;;;;76.55;48.58;;;333.70;2329.60;;;;;;4892605;29;20479;-59
2022/12/06 10:40:29;;;;;;;46.00;30.63;;;358.60;2329.60;;;;;;4893123;29;20119;-56
2022/12/06 10:43:23;;;;;;;44.83;30.60;;;358.80;2329.60;;;;;;4892825;29;20028;-59
2022/12/06 10:49:23;;;;;;;39.35;23.80;;;359.00;2329.60;;;;;;4893246;29;20039;-59
2022/12/06 10:52:02;;;;;;;32.90;18.95;;;358.90;2329.60;;;;;;4892803;29;20404;-59
2022/12/06 10:54:40;;;;;;;26.42;15.73;;;358.90;2329.60;;;;;;4892190;29;20403;-56
2022/12/06 10:57:14;;;;;;;23.92;14.90;;;358.80;2329.60;;;;;;4902147;28;20049;-58
2022/12/06 10:59:53;;;;;;;26.77;22.08;;;358.80;2329.60;;;;;;4970989;28;20374;-57
2022/12/06 11:02:39;;;;;;;22.58;15.23;;;358.90;2329.60;;;;;;4971122;28;20031;-58
2022/12/06 11:05:31;;;;;;;31.33;19.67;;;358.90;2329.60;;;;;;4971185;28;20031;-57
2022/12/06 11:08:15;;;;;;;26.48;17.38;;;359.10;2329.60;;;;;;4962145;28;20038;-60
2022/12/06 11:10:44;;;;;;;28.17;19.48;;;359.00;2329.60;;;;;;4970849;28;20505;-57
2022/12/06 11:13:21;;;;;;;27.05;20.38;;;358.80;2329.60;;;;;;4971037;28;20023;-59
2022/12/06 11:15:58;;;;;;;28.60;18.92;;;358.80;2329.60;;;;;;4971632;28;20504;-57
2022/12/06 11:18:28;;;;;;;31.30;21.88;;;358.70;2329.60;;;;;;4971013;28;20461;-57
2022/12/06 11:21:12;;;;;;;37.33;26.13;;;358.80;2329.60;;;;;;4972096;28;20027;-56
2022/12/06 11:24:06;;;;;;;29.30;21.25;;;358.70;2329.60;;;;;;4974685;28;20034;-57
2022/12/06 11:26:39;;;;;;;;;;;358.40;2329.60;;;;;;4975196;28;20043;-57
2022/12/06 11:29:10;;;;;;;27.63;20.73;;;358.40;2329.60;;;;;;4974556;28;19913;-59
2022/12/06 11:31:42;;;;;;;24.20;17.88;;;333.60;2329.60;;;;;;4957358;28;20089;-59
2022/12/06 11:34:34;;;;;;;35.35;22.85;;;333.60;2329.60;;;;;;4974280;28;20051;-58
2022/12/06 11:37:02;;;;;;;28.27;22.25;;;333.40;2329.60;;;;;;4970756;28;20105;-59
2022/12/06 11:39:30;;;;;;;47.35;32.38;;;333.30;2329.60;;;;;;4974285;28;20027;-59
2022/12/06 11:42:00;;;;;;;31.83;23.10;;;333.10;2329.60;;;;;;4974491;28;20106;-59
2022/12/06 11:44:37;;;;;;;106.40;66.90;;;333.00;2329.60;;;;;;4974202;28;20030;-55
2022/12/06 11:47:04;;;;;;;29.83;21.73;;;333.00;2329.60;;;;;;4974307;28;20030;-57
2022/12/06 11:49:39;;;;;;;102.05;73.45;;;333.10;2329.60;;;;;;4973935;28;20030;-57
2022/12/06 11:52:16;;;;;;;87.43;60.70;;;332.90;2329.60;;;;;;4974119;28;20034;-58
2022/12/06 11:55:01;;;;;;;28.05;19.38;;;332.90;2329.60;;;;;;4974117;28;20031;-57
2022/12/06 11:57:34;;;;;;;30.83;19.48;;;333.10;2329.60;;;;;;4973907;28;20105;-58
2022/12/06 12:00:07;;;;;;;;;;;333.10;2329.60;;;;;;4974398;28;20057;-57
2022/12/06 12:02:33;;;;;;;38.35;27.55;;;333.10;2329.60;;;;;;4973846;28;19949;-58
2022/12/06 12:05:37;;;;;;;52.47;35.92;;;332.90;2329.60;;;;;;4973619;28;20043;-58
2022/12/06 12:08:16;;;;;;;63.55;42.28;;;333.00;2329.60;;;;;;4895588;29;20044;-56
2022/12/06 12:10:56;;;;;;;31.15;18.75;;;332.90;2329.60;;;;;;4895333;29;20048;-57
2022/12/06 12:16:17;;;;;;;58.17;44.85;;;332.80;2329.60;;;;;;4895724;29;20068;-55
2022/12/06 12:18:56;;;;;;;35.33;23.70;;;308.00;2304.00;;;;;;4895436;29;20036;-56
2022/12/06 12:21:41;;;;;;;99.05;76.00;;;308.00;2304.00;;;;;;4895288;29;20402;-56
2022/12/06 12:24:48;;;;;;;96.57;48.33;;;308.10;2304.00;;;;;;4895089;29;20416;-57
2022/12/06 12:27:30;;;;;;;137.68;78.20;;;307.90;2304.00;;;;;;4857841;29;20053;-59
2022/12/06 12:30:14;;;;;;;73.88;49.17;;;307.70;2304.00;;;;;;4858037;29;20513;-57
2022/12/06 12:32:41;;;;;;;89.20;64.38;;;307.60;2304.00;;;;;;4857075;29;20045;-54
2022/12/06 12:35:24;;;;;;;39.03;28.63;;;307.60;2304.00;;;;;;4857800;29;20029;-59
2022/12/06 12:37:54;;;;;;;39.80;25.60;;;307.60;2304.00;;;;;;4857700;29;20069;-60
2022/12/06 12:40:26;;;;;;;29.00;19.50;;;307.60;2304.00;;;;;;4857877;29;20044;-59
2022/12/06 12:43:22;;;;;;;32.95;22.77;;;307.60;2304.00;;;;;;4857532;29;20511;-59
2022/12/06 12:46:14;;;;;;;35.38;24.17;;;307.60;2304.00;;;;;;4894157;29;20127;-59